sensor_id;sensor_type;location;lat;lon;timestamp;temperature;humidity
67279;DHT22;54193;53.746;10.058;2023-04-25T00:00:00;7.44;91.75
67279;DHT22;54193;53.746;10.058;2023-04-25T00:02:45;7.41;91.40
67279;DHT22;54193;53.746;10.058;2023-04-25T00:05:31;7.41;91.41
67279;DHT22;54193;53.746;10.058;2023-04-25T00:08:17;7.35;90.86
67279;DHT22;54193;53.746;10.058;2023-04-25T00:11:03;7.34;90.53
67279;DHT22;54193;53.746;10.058;2023-04-25T00:13:49;7.30;90.60
67279;DHT22;54193;53.746;10.058;2023-04-25T00:16:36;7.24;90.20
67279;DHT22;54193;53.746;10.058;2023-04-25T00:19:21;7.17;89.87
67279;DHT22;54193;53.746;10.058;2023-04-25T00:22:07;7.13;89.35
67279;DHT22;54193;53.746;10.058;2023-04-25T00:24:53;7.16;89.72
67279;DHT22;54193;53.746;10.058;2023-04-25T00:27:38;7.13;89.55
67279;DHT22;54193;53.746;10.058;2023-04-25T00:30:24;7.07;89.53
67279;DHT22;54193;53.746;10.058;2023-04-25T00:33:10;7.07;89.36
67279;DHT22;54193;53.746;10.058;2023-04-25T00:35:56;7.04;89.54
67279;DHT22;54193;53.746;10.058;2023-04-25T00:38:41;7.08;89.80
67279;DHT22;54193;53.746;10.058;2023-04-25T00:41:27;7.04;89.93
67279;DHT22;54193;53.746;10.058;2023-04-25T00:44:13;7.07;89.96
67279;DHT22;54193;53.746;10.058;2023-04-25T00:47:02;7.01;89.82
67279;DHT22;54193;53.746;10.058;2023-04-25T00:49:48;7.00;90.14
67279;DHT22;54193;53.746;10.058;2023-04-25T00:52:34;6.96;89.77
67279;DHT22;54193;53.746;10.058;2023-04-25T00:55:20;6.89;88.87
67279;DHT22;54193;53.746;10.058;2023-04-25T00:58:06;6.93;89.53
67279;DHT22;54193;53.746;10.058;2023-04-25T01:00:51;6.89;89.10
67279;DHT22;54193;53.746;10.058;2023-04-25T01:03:39;6.88;88.31
67279;DHT22;54193;53.746;10.058;2023-04-25T01:06:28;6.89;88.76
67279;DHT22;54193;53.746;10.058;2023-04-25T01:09:14;6.88;88.43
67279;DHT22;54193;53.746;10.058;2023-04-25T01:12:00;6.92;88.08
67279;DHT22;54193;53.746;10.058;2023-04-25T01:14:46;6.83;88.42
67279;DHT22;54193;53.746;10.058;2023-04-25T01:17:34;6.86;87.88
67279;DHT22;54193;53.746;10.058;2023-04-25T01:20:21;6.76;86.95
67279;DHT22;54193;53.746;10.058;2023-04-25T01:23:08;6.80;86.67
67279;DHT22;54193;53.746;10.058;2023-04-25T01:25:54;6.80;86.29
67279;DHT22;54193;53.746;10.058;2023-04-25T01:28:40;6.80;86.38
67279;DHT22;54193;53.746;10.058;2023-04-25T01:31:27;6.73;86.84
67279;DHT22;54193;53.746;10.058;2023-04-25T01:34:13;6.71;86.66
67279;DHT22;54193;53.746;10.058;2023-04-25T01:36:59;6.69;87.44
67279;DHT22;54193;53.746;10.058;2023-04-25T01:39:46;6.65;86.42
67279;DHT22;54193;53.746;10.058;2023-04-25T01:42:35;6.59;85.19
67279;DHT22;54193;53.746;10.058;2023-04-25T01:45:21;6.58;85.30
67279;DHT22;54193;53.746;10.058;2023-04-25T01:48:08;6.49;85.89
67279;DHT22;54193;53.746;10.058;2023-04-25T01:50:54;6.44;85.64
67279;DHT22;54193;53.746;10.058;2023-04-25T01:53:40;6.49;85.15
67279;DHT22;54193;53.746;10.058;2023-04-25T01:56:30;6.42;84.51
67279;DHT22;54193;53.746;10.058;2023-04-25T01:59:15;6.38;83.96
67279;DHT22;54193;53.746;10.058;2023-04-25T02:02:01;6.35;83.39
67279;DHT22;54193;53.746;10.058;2023-04-25T02:04:49;6.35;83.07
67279;DHT22;54193;53.746;10.058;2023-04-25T02:07:34;6.35;82.87
67279;DHT22;54193;53.746;10.058;2023-04-25T02:10:20;6.38;83.86
67279;DHT22;54193;53.746;10.058;2023-04-25T02:13:06;6.30;84.37
67279;DHT22;54193;53.746;10.058;2023-04-25T02:15:51;6.20;83.64
67279;DHT22;54193;53.746;10.058;2023-04-25T02:18:37;6.21;83.51
67279;DHT22;54193;53.746;10.058;2023-04-25T02:21:22;6.13;83.47
67279;DHT22;54193;53.746;10.058;2023-04-25T02:24:08;6.10;84.18
67279;DHT22;54193;53.746;10.058;2023-04-25T02:26:54;6.04;83.71
67279;DHT22;54193;53.746;10.058;2023-04-25T02:29:42;6.03;84.11
67279;DHT22;54193;53.746;10.058;2023-04-25T02:32:28;6.09;84.57
67279;DHT22;54193;53.746;10.058;2023-04-25T02:35:14;6.07;84.50
67279;DHT22;54193;53.746;10.058;2023-04-25T02:37:59;6.04;84.53
67279;DHT22;54193;53.746;10.058;2023-04-25T02:40:45;6.04;83.96
67279;DHT22;54193;53.746;10.058;2023-04-25T02:43:30;6.02;84.16
67279;DHT22;54193;53.746;10.058;2023-04-25T02:46:16;6.03;83.88
67279;DHT22;54193;53.746;10.058;2023-04-25T02:49:02;5.94;83.80
67279;DHT22;54193;53.746;10.058;2023-04-25T02:51:47;5.94;84.17
67279;DHT22;54193;53.746;10.058;2023-04-25T02:54:33;5.87;82.39
67279;DHT22;54193;53.746;10.058;2023-04-25T02:57:19;5.87;82.83
67279;DHT22;54193;53.746;10.058;2023-04-25T03:00:05;5.82;82.23
67279;DHT22;54193;53.746;10.058;2023-04-25T03:02:51;5.77;81.88
67279;DHT22;54193;53.746;10.058;2023-04-25T03:05:36;5.75;82.36
67279;DHT22;54193;53.746;10.058;2023-04-25T03:08:22;5.60;83.07
67279;DHT22;54193;53.746;10.058;2023-04-25T03:11:09;5.51;82.73
67279;DHT22;54193;53.746;10.058;2023-04-25T03:13:55;5.56;82.36
67279;DHT22;54193;53.746;10.058;2023-04-25T03:16:40;5.54;83.21
67279;DHT22;54193;53.746;10.058;2023-04-25T03:19:26;5.39;83.25
67279;DHT22;54193;53.746;10.058;2023-04-25T03:22:12;5.27;83.30
67279;DHT22;54193;53.746;10.058;2023-04-25T03:24:57;5.18;82.86
67279;DHT22;54193;53.746;10.058;2023-04-25T03:27:43;5.13;83.44
67279;DHT22;54193;53.746;10.058;2023-04-25T03:30:29;5.16;82.39
67279;DHT22;54193;53.746;10.058;2023-04-25T03:33:14;5.07;81.86
67279;DHT22;54193;53.746;10.058;2023-04-25T03:36:00;5.01;83.02
67279;DHT22;54193;53.746;10.058;2023-04-25T03:38:46;4.89;81.90
67279;DHT22;54193;53.746;10.058;2023-04-25T03:41:33;4.89;82.18
67279;DHT22;54193;53.746;10.058;2023-04-25T03:44:19;4.79;81.84
67279;DHT22;54193;53.746;10.058;2023-04-25T03:47:05;4.73;82.15
67279;DHT22;54193;53.746;10.058;2023-04-25T03:49:50;4.62;82.60
67279;DHT22;54193;53.746;10.058;2023-04-25T03:52:37;4.75;81.46
67279;DHT22;54193;53.746;10.058;2023-04-25T03:55:22;4.75;81.47
67279;DHT22;54193;53.746;10.058;2023-04-25T03:58:08;4.87;81.08
67279;DHT22;54193;53.746;10.058;2023-04-25T04:00:54;4.90;80.30
67279;DHT22;54193;53.746;10.058;2023-04-25T04:03:39;4.86;81.04
67279;DHT22;54193;53.746;10.058;2023-04-25T04:06:25;4.80;80.70
67279;DHT22;54193;53.746;10.058;2023-04-25T04:09:11;4.87;80.52
67279;DHT22;54193;53.746;10.058;2023-04-25T04:11:57;4.93;79.34
67279;DHT22;54193;53.746;10.058;2023-04-25T04:14:43;5.04;80.36
67279;DHT22;54193;53.746;10.058;2023-04-25T04:17:42;5.10;79.95
67279;DHT22;54193;53.746;10.058;2023-04-25T04:20:29;5.14;80.04
67279;DHT22;54193;53.746;10.058;2023-04-25T04:23:15;5.17;78.40
67279;DHT22;54193;53.746;10.058;2023-04-25T04:26:01;5.27;78.97
67279;DHT22;54193;53.746;10.058;2023-04-25T04:28:46;5.24;78.45
67279;DHT22;54193;53.746;10.058;2023-04-25T04:31:32;5.31;78.43
67279;DHT22;54193;53.746;10.058;2023-04-25T04:34:18;5.32;77.96
67279;DHT22;54193;53.746;10.058;2023-04-25T04:37:03;5.39;78.43
67279;DHT22;54193;53.746;10.058;2023-04-25T04:39:49;5.42;77.12
67279;DHT22;54193;53.746;10.058;2023-04-25T04:42:35;5.51;76.51
67279;DHT22;54193;53.746;10.058;2023-04-25T04:45:21;5.54;74.21
67279;DHT22;54193;53.746;10.058;2023-04-25T04:48:07;5.60;74.44
67279;DHT22;54193;53.746;10.058;2023-04-25T04:50:53;5.62;74.47
67279;DHT22;54193;53.746;10.058;2023-04-25T04:53:39;5.67;76.59
67279;DHT22;54193;53.746;10.058;2023-04-25T04:56:25;5.69;76.19
67279;DHT22;54193;53.746;10.058;2023-04-25T04:59:10;5.77;74.76
67279;DHT22;54193;53.746;10.058;2023-04-25T05:01:56;5.76;74.36
67279;DHT22;54193;53.746;10.058;2023-04-25T05:04:42;5.79;72.65
67279;DHT22;54193;53.746;10.058;2023-04-25T05:07:27;5.89;73.60
67279;DHT22;54193;53.746;10.058;2023-04-25T05:10:13;5.87;73.17
67279;DHT22;54193;53.746;10.058;2023-04-25T05:12:59;5.92;73.67
67279;DHT22;54193;53.746;10.058;2023-04-25T05:15:44;6.02;74.52
67279;DHT22;54193;53.746;10.058;2023-04-25T05:18:30;6.03;74.01
67279;DHT22;54193;53.746;10.058;2023-04-25T05:21:15;5.90;75.39
67279;DHT22;54193;53.746;10.058;2023-04-25T05:24:01;5.85;77.87
67279;DHT22;54193;53.746;10.058;2023-04-25T05:26:47;5.79;78.99
67279;DHT22;54193;53.746;10.058;2023-04-25T05:29:33;5.73;79.56
67279;DHT22;54193;53.746;10.058;2023-04-25T05:32:18;5.76;79.74
67279;DHT22;54193;53.746;10.058;2023-04-25T05:35:04;5.75;79.98
67279;DHT22;54193;53.746;10.058;2023-04-25T05:37:52;5.79;80.29
67279;DHT22;54193;53.746;10.058;2023-04-25T05:40:37;5.90;80.82
67279;DHT22;54193;53.746;10.058;2023-04-25T05:43:23;5.97;80.22
67279;DHT22;54193;53.746;10.058;2023-04-25T05:46:09;6.03;80.52
67279;DHT22;54193;53.746;10.058;2023-04-25T05:48:54;6.07;79.59
67279;DHT22;54193;53.746;10.058;2023-04-25T05:51:40;6.17;80.18
67279;DHT22;54193;53.746;10.058;2023-04-25T05:54:26;6.10;79.69
67279;DHT22;54193;53.746;10.058;2023-04-25T05:57:22;6.10;79.45
67279;DHT22;54193;53.746;10.058;2023-04-25T06:00:09;5.97;79.18
67279;DHT22;54193;53.746;10.058;2023-04-25T06:02:55;5.96;78.81
67279;DHT22;54193;53.746;10.058;2023-04-25T06:05:41;6.14;79.54
67279;DHT22;54193;53.746;10.058;2023-04-25T06:08:28;6.20;78.81
67279;DHT22;54193;53.746;10.058;2023-04-25T06:11:13;6.24;79.02
67279;DHT22;54193;53.746;10.058;2023-04-25T06:14:00;6.21;78.40
67279;DHT22;54193;53.746;10.058;2023-04-25T06:16:46;6.30;79.68
67279;DHT22;54193;53.746;10.058;2023-04-25T06:19:35;6.38;79.00
67279;DHT22;54193;53.746;10.058;2023-04-25T06:22:21;6.40;79.40
67279;DHT22;54193;53.746;10.058;2023-04-25T06:25:07;6.35;80.23
67279;DHT22;54193;53.746;10.058;2023-04-25T06:27:53;6.35;80.70
67279;DHT22;54193;53.746;10.058;2023-04-25T06:30:38;6.32;80.68
67279;DHT22;54193;53.746;10.058;2023-04-25T06:33:24;6.35;80.36
67279;DHT22;54193;53.746;10.058;2023-04-25T06:36:10;6.20;80.97
67279;DHT22;54193;53.746;10.058;2023-04-25T06:38:56;6.21;81.44
67279;DHT22;54193;53.746;10.058;2023-04-25T06:41:42;6.13;81.09
67279;DHT22;54193;53.746;10.058;2023-04-25T06:44:28;6.23;81.34
67279;DHT22;54193;53.746;10.058;2023-04-25T06:47:14;6.28;82.50
67279;DHT22;54193;53.746;10.058;2023-04-25T06:50:00;5.80;85.17
67279;DHT22;54193;53.746;10.058;2023-04-25T06:52:46;5.60;86.58
67279;DHT22;54193;53.746;10.058;2023-04-25T06:55:31;5.56;86.91
67279;DHT22;54193;53.746;10.058;2023-04-25T06:58:17;5.63;87.39
67279;DHT22;54193;53.746;10.058;2023-04-25T07:01:03;5.83;87.16
67279;DHT22;54193;53.746;10.058;2023-04-25T07:03:49;6.06;86.30
67279;DHT22;54193;53.746;10.058;2023-04-25T07:06:34;6.69;85.57
67279;DHT22;54193;53.746;10.058;2023-04-25T07:09:23;6.76;83.30
67279;DHT22;54193;53.746;10.058;2023-04-25T07:12:09;6.75;82.78
67279;DHT22;54193;53.746;10.058;2023-04-25T07:14:54;6.64;82.49
67279;DHT22;54193;53.746;10.058;2023-04-25T07:17:40;6.86;83.81
67279;DHT22;54193;53.746;10.058;2023-04-25T07:20:25;6.85;81.73
67279;DHT22;54193;53.746;10.058;2023-04-25T07:23:13;6.72;79.65
67279;DHT22;54193;53.746;10.058;2023-04-25T07:25:58;6.96;80.06
67279;DHT22;54193;53.746;10.058;2023-04-25T07:28:44;7.17;79.29
67279;DHT22;54193;53.746;10.058;2023-04-25T07:31:31;7.18;78.85
67279;DHT22;54193;53.746;10.058;2023-04-25T07:34:16;7.37;77.85
67279;DHT22;54193;53.746;10.058;2023-04-25T07:37:02;7.65;76.27
67279;DHT22;54193;53.746;10.058;2023-04-25T07:39:48;7.75;75.70
67279;DHT22;54193;53.746;10.058;2023-04-25T07:42:33;7.86;74.85
67279;DHT22;54193;53.746;10.058;2023-04-25T07:45:19;8.55;75.11
67279;DHT22;54193;53.746;10.058;2023-04-25T07:48:05;9.23;72.54
67279;DHT22;54193;53.746;10.058;2023-04-25T07:50:51;9.58;71.10
67279;DHT22;54193;53.746;10.058;2023-04-25T07:53:36;9.48;72.63
67279;DHT22;54193;53.746;10.058;2023-04-25T07:56:22;9.58;71.09
67279;DHT22;54193;53.746;10.058;2023-04-25T07:59:08;9.57;72.24
67279;DHT22;54193;53.746;10.058;2023-04-25T08:01:54;9.28;70.33
67279;DHT22;54193;53.746;10.058;2023-04-25T08:04:40;9.24;72.06
67279;DHT22;54193;53.746;10.058;2023-04-25T08:07:26;9.14;71.18
67279;DHT22;54193;53.746;10.058;2023-04-25T08:10:12;9.33;72.24
67279;DHT22;54193;53.746;10.058;2023-04-25T08:12:57;8.85;72.28
67279;DHT22;54193;53.746;10.058;2023-04-25T08:15:43;7.94;77.09
67279;DHT22;54193;53.746;10.058;2023-04-25T08:18:28;7.08;78.66
67279;DHT22;54193;53.746;10.058;2023-04-25T08:21:14;6.90;80.04
67279;DHT22;54193;53.746;10.058;2023-04-25T08:24:00;7.16;79.09
67279;DHT22;54193;53.746;10.058;2023-04-25T08:26:46;7.76;76.50
67279;DHT22;54193;53.746;10.058;2023-04-25T08:29:32;8.51;76.09
67279;DHT22;54193;53.746;10.058;2023-04-25T08:32:18;8.16;71.92
67279;DHT22;54193;53.746;10.058;2023-04-25T08:35:04;8.64;72.08
67279;DHT22;54193;53.746;10.058;2023-04-25T08:37:50;9.54;70.90
67279;DHT22;54193;53.746;10.058;2023-04-25T08:40:38;10.26;67.60
67279;DHT22;54193;53.746;10.058;2023-04-25T08:43:24;11.26;64.29
67279;DHT22;54193;53.746;10.058;2023-04-25T08:46:11;11.33;63.38
67279;DHT22;54193;53.746;10.058;2023-04-25T08:49:01;10.55;63.67
67279;DHT22;54193;53.746;10.058;2023-04-25T08:51:48;10.53;64.95
67279;DHT22;54193;53.746;10.058;2023-04-25T08:54:36;10.62;63.39
67279;DHT22;54193;53.746;10.058;2023-04-25T08:57:23;9.74;64.31
67279;DHT22;54193;53.746;10.058;2023-04-25T09:00:12;10.12;63.28
67279;DHT22;54193;53.746;10.058;2023-04-25T09:02:58;10.33;64.01
67279;DHT22;54193;53.746;10.058;2023-04-25T09:05:44;9.96;65.05
67279;DHT22;54193;53.746;10.058;2023-04-25T09:08:30;10.30;62.38
67279;DHT22;54193;53.746;10.058;2023-04-25T09:11:16;9.89;61.90
67279;DHT22;54193;53.746;10.058;2023-04-25T09:14:22;9.51;63.89
67279;DHT22;54193;53.746;10.058;2023-04-25T09:17:08;9.09;64.93
67279;DHT22;54193;53.746;10.058;2023-04-25T09:19:54;9.04;66.04
67279;DHT22;54193;53.746;10.058;2023-04-25T09:22:39;8.55;64.47
67279;DHT22;54193;53.746;10.058;2023-04-25T09:25:25;8.83;64.96
67279;DHT22;54193;53.746;10.058;2023-04-25T09:28:11;10.62;60.22
67279;DHT22;54193;53.746;10.058;2023-04-25T09:30:57;10.37;57.21
67279;DHT22;54193;53.746;10.058;2023-04-25T09:33:42;11.77;53.57
67279;DHT22;54193;53.746;10.058;2023-04-25T09:36:29;11.74;55.82
67279;DHT22;54193;53.746;10.058;2023-04-25T09:39:15;11.41;56.01
67279;DHT22;54193;53.746;10.058;2023-04-25T09:42:02;11.46;56.59
67279;DHT22;54193;53.746;10.058;2023-04-25T09:44:48;11.50;57.69
67279;DHT22;54193;53.746;10.058;2023-04-25T09:47:37;10.40;59.28
67279;DHT22;54193;53.746;10.058;2023-04-25T09:50:23;10.12;59.97
67279;DHT22;54193;53.746;10.058;2023-04-25T09:53:10;9.85;60.35
67279;DHT22;54193;53.746;10.058;2023-04-25T09:55:56;9.48;60.31
67279;DHT22;54193;53.746;10.058;2023-04-25T09:58:42;10.07;59.76
67279;DHT22;54193;53.746;10.058;2023-04-25T10:01:28;10.60;59.87
67279;DHT22;54193;53.746;10.058;2023-04-25T10:04:18;11.86;59.19
67279;DHT22;54193;53.746;10.058;2023-04-25T10:07:06;12.49;57.17
67279;DHT22;54193;53.746;10.058;2023-04-25T10:09:58;12.20;57.28
67279;DHT22;54193;53.746;10.058;2023-04-25T10:12:45;11.37;58.28
67279;DHT22;54193;53.746;10.058;2023-04-25T10:15:34;10.91;59.33
67279;DHT22;54193;53.746;10.058;2023-04-25T10:18:21;10.47;60.12
67279;DHT22;54193;53.746;10.058;2023-04-25T10:21:07;10.61;60.94
67279;DHT22;54193;53.746;10.058;2023-04-25T10:23:53;9.98;61.08
67279;DHT22;54193;53.746;10.058;2023-04-25T10:26:38;9.54;60.93
67279;DHT22;54193;53.746;10.058;2023-04-25T10:29:25;9.48;65.11
67279;DHT22;54193;53.746;10.058;2023-04-25T10:32:11;9.65;65.45
67279;DHT22;54193;53.746;10.058;2023-04-25T10:34:57;9.69;63.65
67279;DHT22;54193;53.746;10.058;2023-04-25T10:38:04;9.37;66.28
67279;DHT22;54193;53.746;10.058;2023-04-25T10:41:04;9.23;67.27
67279;DHT22;54193;53.746;10.058;2023-04-25T10:43:59;8.83;68.35
67279;DHT22;54193;53.746;10.058;2023-04-25T10:46:46;8.26;70.60
67279;DHT22;54193;53.746;10.058;2023-04-25T10:49:34;8.14;68.86
67279;DHT22;54193;53.746;10.058;2023-04-25T10:52:26;8.28;67.26
67279;DHT22;54193;53.746;10.058;2023-04-25T10:55:13;8.42;67.63
67279;DHT22;54193;53.746;10.058;2023-04-25T10:58:00;8.31;66.30
67279;DHT22;54193;53.746;10.058;2023-04-25T11:00:46;8.19;65.79
67279;DHT22;54193;53.746;10.058;2023-04-25T11:03:32;8.51;66.85
67279;DHT22;54193;53.746;10.058;2023-04-25T11:06:27;8.64;67.88
67279;DHT22;54193;53.746;10.058;2023-04-25T11:09:14;8.79;65.02
67279;DHT22;54193;53.746;10.058;2023-04-25T11:12:00;9.07;63.97
67279;DHT22;54193;53.746;10.058;2023-04-25T11:14:46;9.58;65.08
67279;DHT22;54193;53.746;10.058;2023-04-25T11:17:32;9.58;64.12
67279;DHT22;54193;53.746;10.058;2023-04-25T11:20:18;9.63;65.98
67279;DHT22;54193;53.746;10.058;2023-04-25T11:23:04;10.06;65.12
67279;DHT22;54193;53.746;10.058;2023-04-25T11:25:49;9.95;60.07
67279;DHT22;54193;53.746;10.058;2023-04-25T11:28:36;10.00;63.10
67279;DHT22;54193;53.746;10.058;2023-04-25T11:31:22;9.54;64.44
67279;DHT22;54193;53.746;10.058;2023-04-25T11:34:07;9.03;69.03
67279;DHT22;54193;53.746;10.058;2023-04-25T11:36:53;8.23;73.16
67279;DHT22;54193;53.746;10.058;2023-04-25T11:39:43;8.17;72.99
67279;DHT22;54193;53.746;10.058;2023-04-25T11:42:30;8.45;68.68
67279;DHT22;54193;53.746;10.058;2023-04-25T11:45:15;8.68;64.84
67279;DHT22;54193;53.746;10.058;2023-04-25T11:48:01;8.57;68.86
67279;DHT22;54193;53.746;10.058;2023-04-25T11:50:48;8.93;70.57
67279;DHT22;54193;53.746;10.058;2023-04-25T11:53:33;8.45;68.55
67279;DHT22;54193;53.746;10.058;2023-04-25T11:56:20;9.19;67.31
67279;DHT22;54193;53.746;10.058;2023-04-25T11:59:06;9.12;66.64
67279;DHT22;54193;53.746;10.058;2023-04-25T12:01:52;9.74;64.18
67279;DHT22;54193;53.746;10.058;2023-04-25T12:04:40;9.38;61.36
67279;DHT22;54193;53.746;10.058;2023-04-25T12:07:29;9.24;63.02
67279;DHT22;54193;53.746;10.058;2023-04-25T12:10:17;8.90;64.00
67279;DHT22;54193;53.746;10.058;2023-04-25T12:13:17;9.31;65.80
67279;DHT22;54193;53.746;10.058;2023-04-25T12:16:03;9.92;61.15
67279;DHT22;54193;53.746;10.058;2023-04-25T12:18:51;10.21;60.47
67279;DHT22;54193;53.746;10.058;2023-04-25T12:21:38;10.13;58.79
67279;DHT22;54193;53.746;10.058;2023-04-25T12:24:25;10.02;61.56
67279;DHT22;54193;53.746;10.058;2023-04-25T12:27:14;9.75;62.12
67279;DHT22;54193;53.746;10.058;2023-04-25T12:30:01;9.59;63.39
67279;DHT22;54193;53.746;10.058;2023-04-25T12:32:47;9.22;63.72
67279;DHT22;54193;53.746;10.058;2023-04-25T12:35:33;8.49;64.18
67279;DHT22;54193;53.746;10.058;2023-04-25T12:38:27;8.31;65.93
67279;DHT22;54193;53.746;10.058;2023-04-25T12:41:12;8.34;65.44
67279;DHT22;54193;53.746;10.058;2023-04-25T12:43:58;8.65;66.08
67279;DHT22;54193;53.746;10.058;2023-04-25T12:46:44;9.13;64.51
67279;DHT22;54193;53.746;10.058;2023-04-25T12:49:30;9.62;64.18
67279;DHT22;54193;53.746;10.058;2023-04-25T12:52:16;9.75;66.02
67279;DHT22;54193;53.746;10.058;2023-04-25T12:55:02;9.81;62.50
67279;DHT22;54193;53.746;10.058;2023-04-25T12:57:47;9.68;60.21
67279;DHT22;54193;53.746;10.058;2023-04-25T13:00:33;9.58;60.18
67279;DHT22;54193;53.746;10.058;2023-04-25T13:03:19;9.30;58.77
67279;DHT22;54193;53.746;10.058;2023-04-25T13:06:05;9.37;60.83
67279;DHT22;54193;53.746;10.058;2023-04-25T13:08:50;9.23;60.84
67279;DHT22;54193;53.746;10.058;2023-04-25T13:11:36;9.47;61.52
67279;DHT22;54193;53.746;10.058;2023-04-25T13:14:22;9.72;63.64
67279;DHT22;54193;53.746;10.058;2023-04-25T13:17:07;9.82;64.02
67279;DHT22;54193;53.746;10.058;2023-04-25T13:19:53;9.62;61.49
67279;DHT22;54193;53.746;10.058;2023-04-25T13:22:39;9.26;58.60
67279;DHT22;54193;53.746;10.058;2023-04-25T13:25:25;9.06;57.09
67279;DHT22;54193;53.746;10.058;2023-04-25T13:28:11;8.95;56.77
67279;DHT22;54193;53.746;10.058;2023-04-25T13:30:56;9.20;61.57
67279;DHT22;54193;53.746;10.058;2023-04-25T13:33:43;9.16;57.93
67279;DHT22;54193;53.746;10.058;2023-04-25T13:36:29;9.51;62.92
67279;DHT22;54193;53.746;10.058;2023-04-25T13:39:17;9.42;62.23
67279;DHT22;54193;53.746;10.058;2023-04-25T13:42:03;9.52;66.55
67279;DHT22;54193;53.746;10.058;2023-04-25T13:44:48;9.47;64.81
67279;DHT22;54193;53.746;10.058;2023-04-25T13:47:34;8.85;67.61
67279;DHT22;54193;53.746;10.058;2023-04-25T13:50:20;8.90;67.94
67279;DHT22;54193;53.746;10.058;2023-04-25T13:53:06;9.07;67.74
67279;DHT22;54193;53.746;10.058;2023-04-25T13:55:52;9.28;66.87
67279;DHT22;54193;53.746;10.058;2023-04-25T13:58:38;9.31;68.45
67279;DHT22;54193;53.746;10.058;2023-04-25T14:01:25;9.51;66.84
67279;DHT22;54193;53.746;10.058;2023-04-25T14:04:11;9.61;66.26
67279;DHT22;54193;53.746;10.058;2023-04-25T14:06:57;9.58;62.97
67279;DHT22;54193;53.746;10.058;2023-04-25T14:09:43;9.51;62.40
67279;DHT22;54193;53.746;10.058;2023-04-25T14:12:28;9.42;62.76
67279;DHT22;54193;53.746;10.058;2023-04-25T14:15:14;9.38;62.03
67279;DHT22;54193;53.746;10.058;2023-04-25T14:18:00;9.40;61.23
67279;DHT22;54193;53.746;10.058;2023-04-25T14:20:47;9.12;60.71
67279;DHT22;54193;53.746;10.058;2023-04-25T14:23:33;9.14;59.70
67279;DHT22;54193;53.746;10.058;2023-04-25T14:26:18;9.37;60.79
67279;DHT22;54193;53.746;10.058;2023-04-25T14:29:05;9.47;61.26
67279;DHT22;54193;53.746;10.058;2023-04-25T14:31:52;9.48;62.25
67279;DHT22;54193;53.746;10.058;2023-04-25T14:34:38;9.85;62.35
67279;DHT22;54193;53.746;10.058;2023-04-25T14:37:25;9.50;60.60
67279;DHT22;54193;53.746;10.058;2023-04-25T14:40:12;9.24;61.06
67279;DHT22;54193;53.746;10.058;2023-04-25T14:42:58;9.20;60.06
67279;DHT22;54193;53.746;10.058;2023-04-25T14:45:44;9.03;60.49
67279;DHT22;54193;53.746;10.058;2023-04-25T14:48:30;9.19;61.73
67279;DHT22;54193;53.746;10.058;2023-04-25T14:51:16;9.14;62.02
67279;DHT22;54193;53.746;10.058;2023-04-25T14:54:01;8.96;66.98
67279;DHT22;54193;53.746;10.058;2023-04-25T14:56:47;8.80;70.16
67279;DHT22;54193;53.746;10.058;2023-04-25T14:59:33;8.14;70.83
67279;DHT22;54193;53.746;10.058;2023-04-25T15:02:18;8.04;71.22
67279;DHT22;54193;53.746;10.058;2023-04-25T15:05:04;7.61;74.17
67279;DHT22;54193;53.746;10.058;2023-04-25T15:07:50;7.08;78.69
67279;DHT22;54193;53.746;10.058;2023-04-25T15:10:36;6.96;79.06
67279;DHT22;54193;53.746;10.058;2023-04-25T15:13:22;7.00;79.97
67279;DHT22;54193;53.746;10.058;2023-04-25T15:16:07;6.99;79.66
67279;DHT22;54193;53.746;10.058;2023-04-25T15:18:53;7.01;76.81
67279;DHT22;54193;53.746;10.058;2023-04-25T15:21:39;7.14;74.76
67279;DHT22;54193;53.746;10.058;2023-04-25T15:24:24;7.66;74.80
67279;DHT22;54193;53.746;10.058;2023-04-25T15:27:11;8.14;72.48
67279;DHT22;54193;53.746;10.058;2023-04-25T15:29:56;8.37;71.93
67279;DHT22;54193;53.746;10.058;2023-04-25T15:32:43;8.34;71.60
67279;DHT22;54193;53.746;10.058;2023-04-25T15:35:29;8.16;67.95
67279;DHT22;54193;53.746;10.058;2023-04-25T15:38:14;8.14;69.02
67279;DHT22;54193;53.746;10.058;2023-04-25T15:41:00;8.14;68.94
67279;DHT22;54193;53.746;10.058;2023-04-25T15:43:47;8.17;68.73
67279;DHT22;54193;53.746;10.058;2023-04-25T15:46:33;8.20;68.43
67279;DHT22;54193;53.746;10.058;2023-04-25T15:49:18;8.26;67.59
67279;DHT22;54193;53.746;10.058;2023-04-25T15:52:06;8.42;69.88
67279;DHT22;54193;53.746;10.058;2023-04-25T15:54:52;8.44;67.07
67279;DHT22;54193;53.746;10.058;2023-04-25T15:57:38;8.51;65.47
67279;DHT22;54193;53.746;10.058;2023-04-25T16:00:25;8.59;65.09
67279;DHT22;54193;53.746;10.058;2023-04-25T16:03:12;8.78;63.00
67279;DHT22;54193;53.746;10.058;2023-04-25T16:05:57;8.75;62.33
67279;DHT22;54193;53.746;10.058;2023-04-25T16:08:43;8.47;62.32
67279;DHT22;54193;53.746;10.058;2023-04-25T16:11:29;8.27;61.99
67279;DHT22;54193;53.746;10.058;2023-04-25T16:14:14;8.07;64.12
67279;DHT22;54193;53.746;10.058;2023-04-25T16:17:00;8.17;62.68
67279;DHT22;54193;53.746;10.058;2023-04-25T16:19:46;8.26;63.81
67279;DHT22;54193;53.746;10.058;2023-04-25T16:22:31;8.17;63.28
67279;DHT22;54193;53.746;10.058;2023-04-25T16:25:17;8.09;64.74
67279;DHT22;54193;53.746;10.058;2023-04-25T16:28:03;7.96;67.82
67279;DHT22;54193;53.746;10.058;2023-04-25T16:30:48;6.46;75.92
67279;DHT22;54193;53.746;10.058;2023-04-25T16:33:34;5.59;82.11
67279;DHT22;54193;53.746;10.058;2023-04-25T16:36:20;5.51;83.51
67279;DHT22;54193;53.746;10.058;2023-04-25T16:39:05;5.35;84.95
67279;DHT22;54193;53.746;10.058;2023-04-25T16:41:52;5.32;85.50
67279;DHT22;54193;53.746;10.058;2023-04-25T16:44:38;5.44;83.51
67279;DHT22;54193;53.746;10.058;2023-04-25T16:47:24;5.58;84.02
67279;DHT22;54193;53.746;10.058;2023-04-25T16:50:12;5.73;82.68
67279;DHT22;54193;53.746;10.058;2023-04-25T16:52:58;5.82;81.10
67279;DHT22;54193;53.746;10.058;2023-04-25T16:55:43;5.86;80.48
67279;DHT22;54193;53.746;10.058;2023-04-25T16:58:29;5.82;79.62
67279;DHT22;54193;53.746;10.058;2023-04-25T17:01:14;5.82;79.71
67279;DHT22;54193;53.746;10.058;2023-04-25T17:04:01;5.96;79.38
67279;DHT22;54193;53.746;10.058;2023-04-25T17:06:47;6.13;79.79
67279;DHT22;54193;53.746;10.058;2023-04-25T17:09:32;6.24;78.49
67279;DHT22;54193;53.746;10.058;2023-04-25T17:12:18;6.32;79.31
67279;DHT22;54193;53.746;10.058;2023-04-25T17:15:04;6.30;78.83
67279;DHT22;54193;53.746;10.058;2023-04-25T17:17:50;6.21;78.49
67279;DHT22;54193;53.746;10.058;2023-04-25T17:20:36;6.18;79.43
67279;DHT22;54193;53.746;10.058;2023-04-25T17:23:22;6.28;80.28
67279;DHT22;54193;53.746;10.058;2023-04-25T17:26:08;6.37;80.95
67279;DHT22;54193;53.746;10.058;2023-04-25T17:28:53;6.31;81.30